Time;durP1;ratioP1;P1;durP2;ratioP2;P2;SDS_P1;SDS_P2;PMS_P1;PMS_P2;Temp;Humidity;BMP_temperature;BMP_pressure;BME280_temperature;BME280_humidity;BME280_pressure;Samples;Min_cycle;Max_cycle;Signal;HPM_P1;HPM_P2
2023/10/26 00:00:37;;;;;;;13.13;3.35;;;;;;;9.81;100.00;98459.66;4991370;28;20128;-67
2023/10/26 00:03:04;;;;;;;13.20;3.17;;;;;;;9.87;100.00;98451.38;4988740;28;20170;-67
2023/10/26 00:05:31;;;;;;;16.48;4.75;;;;;;;9.81;100.00;98454.44;4990615;28;20046;-67
2023/10/26 00:07:57;;;;;;;18.33;3.78;;;;;;;9.78;100.00;98452.03;4991174;28;20042;-67
2023/10/26 00:10:24;;;;;;;16.17;2.95;;;;;;;9.81;100.00;98449.19;4993268;28;20057;-67
2023/10/26 00:12:51;;;;;;;12.68;2.83;;;;;;;9.65;100.00;98441.63;5011079;28;20050;-67
2023/10/26 00:15:18;;;;;;;14.10;2.70;;;;;;;9.54;100.00;98425.84;4994033;28;20054;-66
2023/10/26 00:17:45;;;;;;;11.48;2.38;;;;;;;9.54;100.00;98433.69;4991643;28;20039;-67
2023/10/26 00:20:12;;;;;;;8.20;1.90;;;;;;;9.49;100.00;98441.00;4992678;28;20058;-67
2023/10/26 00:22:39;;;;;;;9.55;2.05;;;;;;;9.51;100.00;98436.53;4991706;28;20050;-67
2023/10/26 00:25:06;;;;;;;8.05;1.67;;;;;;;9.41;100.00;98418.03;4991532;28;20484;-67
2023/10/26 00:27:33;;;;;;;7.45;1.65;;;;;;;9.34;100.00;98416.78;4991940;28;20050;-67
2023/10/26 00:30:00;;;;;;;6.00;1.38;;;;;;;9.45;100.00;98418.66;4993683;28;20057;-67
2023/10/26 00:32:27;;;;;;;5.32;1.60;;;;;;;9.46;100.00;98417.72;4991922;28;20770;-67
2023/10/26 00:34:53;;;;;;;10.95;1.55;;;;;;;9.42;100.00;98411.88;4992460;28;20049;-67
2023/10/26 00:37:20;;;;;;;8.10;1.60;;;;;;;9.30;100.00;98404.91;4995300;28;20499;-67
2023/10/26 00:39:47;;;;;;;6.20;1.67;;;;;;;9.29;100.00;98390.97;4996000;28;20535;-67
2023/10/26 00:42:13;;;;;;;8.55;1.60;;;;;;;9.29;100.00;98390.97;4990567;28;20496;-67
2023/10/26 00:44:40;;;;;;;5.10;1.45;;;;;;;9.09;100.00;98387.16;4996053;28;20065;-67
2023/10/26 00:47:07;;;;;;;6.30;1.50;;;;;;;9.22;100.00;98392.34;4991921;28;20054;-67
2023/10/26 00:49:34;;;;;;;7.95;1.73;;;;;;;9.19;100.00;98378.69;4992266;28;20056;-67
2023/10/26 00:52:02;;;;;;;5.32;1.33;;;;;;;9.14;100.00;98376.41;4986642;28;20073;-68
2023/10/26 00:54:31;;;;;;;5.18;1.15;;;;;;;9.09;100.00;98374.09;4991183;28;20050;-67
2023/10/26 00:56:58;;;;;;;3.80;1.83;;;;;;;9.10;100.00;98370.56;4995960;28;20424;-67
2023/10/26 00:59:29;;;;;;;7.55;1.50;;;;;;;9.05;100.00;98372.66;4988951;28;20046;-67
2023/10/26 01:01:57;;;;;;;5.45;1.30;;;;;;;9.08;100.00;98367.22;4987652;28;20057;-67
2023/10/26 01:04:24;;;;;;;4.85;1.40;;;;;;;8.97;100.00;98345.41;4993773;28;20449;-67
2023/10/26 01:06:51;;;;;;;6.45;1.20;;;;;;;9.00;100.00;98360.88;4990749;28;20397;-67
2023/10/26 01:09:17;;;;;;;4.82;1.40;;;;;;;8.99;100.00;98362.63;4995434;28;20057;-66
2023/10/26 01:11:44;;;;;;;3.97;1.10;;;;;;;9.13;100.00;98361.66;4990574;28;21316;-67
2023/10/26 01:14:11;;;;;;;3.58;1.08;;;;;;;9.19;100.00;98350.81;4993744;28;20455;-67
2023/10/26 01:16:38;;;;;;;3.13;1.10;;;;;;;9.09;100.00;98347.16;4990270;28;20054;-66
2023/10/26 01:19:07;;;;;;;3.53;1.00;;;;;;;9.10;100.00;98338.38;4991188;28;20057;-67
2023/10/26 01:21:51;;;;;;;3.40;0.90;;;;;;;9.14;100.00;98332.03;4985307;28;20055;-67
2023/10/26 01:24:18;;;;;;;;;;;;;;;9.12;100.00;98333.91;4988368;28;20061;-67
2023/10/26 01:26:45;;;;;;;3.35;0.80;;;;;;;9.15;100.00;98330.25;4989647;28;19968;-67
2023/10/26 01:29:12;;;;;;;0.90;0.80;;;;;;;8.96;100.00;98297.59;4989642;28;20057;-67
2023/10/26 01:31:39;;;;;;;6.30;2.35;;;;;;;8.99;100.00;98301.75;4990239;28;20050;-68
2023/10/26 01:34:05;;;;;;;1.67;0.90;;;;;;;8.61;100.00;98266.97;4990529;28;20061;-66
2023/10/26 01:36:32;;;;;;;2.28;1.10;;;;;;;9.04;100.00;98307.50;4990580;28;20082;-66
2023/10/26 01:39:00;;;;;;;2.10;0.85;;;;;;;8.92;100.00;98297.00;4991220;28;20038;-67
2023/10/26 01:41:31;;;;;;;1.85;0.98;;;;;;;9.05;100.00;98289.13;4989532;28;20054;-67
2023/10/26 01:43:59;;;;;;;4.03;1.58;;;;;;;8.99;100.00;98286.94;4990234;28;20555;-67
2023/10/26 01:46:26;;;;;;;2.03;1.00;;;;;;;8.81;100.00;98285.63;4989992;28;20062;-67
2023/10/26 01:48:53;;;;;;;1.27;0.90;;;;;;;8.89;100.00;98291.16;4990099;28;20042;-67
2023/10/26 01:51:20;;;;;;;3.30;0.98;;;;;;;9.01;100.00;98287.69;4990044;28;20510;-68
2023/10/26 01:53:46;;;;;;;2.00;1.08;;;;;;;8.91;100.00;98277.03;4989225;28;20046;-67
2023/10/26 01:56:13;;;;;;;1.35;0.90;;;;;;;9.06;100.00;98292.56;4989190;28;20081;-67
2023/10/26 01:58:40;;;;;;;1.45;0.80;;;;;;;9.03;100.00;98271.88;4989133;28;20054;-67
2023/10/26 02:01:06;;;;;;;4.00;1.17;;;;;;;9.01;100.00;98274.63;4988703;28;20050;-67
2023/10/26 02:03:33;;;;;;;2.15;0.90;;;;;;;9.01;100.00;98277.25;4985222;28;20404;-67
2023/10/26 02:06:02;;;;;;;1.83;0.90;;;;;;;8.97;100.00;98277.56;4988844;28;20676;-67
2023/10/26 02:08:29;;;;;;;1.42;0.90;;;;;;;9.14;100.00;98266.75;4988331;28;20105;-67
2023/10/26 02:10:56;;;;;;;3.22;0.90;;;;;;;9.13;100.00;98257.25;4989366;28;20046;-67
2023/10/26 02:13:23;;;;;;;3.13;0.90;;;;;;;9.18;100.00;98262.16;4990601;28;20056;-68
2023/10/26 02:15:50;;;;;;;4.55;1.80;;;;;;;9.17;100.00;98250.03;4987486;28;20042;-67
2023/10/26 02:18:16;;;;;;;5.40;1.67;;;;;;;9.30;100.00;98261.28;4993181;28;20046;-67
2023/10/26 02:20:43;;;;;;;3.58;0.90;;;;;;;9.20;100.00;98242.81;4995269;28;20411;-67
2023/10/26 02:23:10;;;;;;;2.78;1.23;;;;;;;9.33;100.00;98250.63;4986055;28;20046;-67
2023/10/26 02:25:37;;;;;;;4.75;1.10;;;;;;;9.32;100.00;98251.56;4989943;28;20050;-67
2023/10/26 02:28:03;;;;;;;6.13;1.60;;;;;;;9.34;100.00;98247.03;4989085;28;20050;-67
2023/10/26 02:30:30;;;;;;;8.95;1.70;;;;;;;9.30;100.00;98240.38;4988615;28;20393;-67
2023/10/26 02:32:57;;;;;;;2.85;1.20;;;;;;;9.44;100.00;98242.00;4989890;28;20117;-67
2023/10/26 02:35:23;;;;;;;7.22;1.27;;;;;;;9.49;100.00;98226.81;4990243;28;20480;-67
2023/10/26 02:37:50;;;;;;;5.70;1.50;;;;;;;9.58;100.00;98220.94;4992980;28;20053;-67
2023/10/26 02:40:16;;;;;;;6.80;1.27;;;;;;;9.63;100.00;98212.72;4993264;28;20065;-67
2023/10/26 02:42:43;;;;;;;7.18;1.48;;;;;;;9.58;100.00;98220.94;4993549;28;20058;-67
2023/10/26 02:45:10;;;;;;;5.97;1.42;;;;;;;9.41;100.00;98209.09;4989691;28;20050;-67
2023/10/26 02:47:37;;;;;;;5.07;1.45;;;;;;;9.37;100.00;98205.03;4990694;28;20133;-66
2023/10/26 02:50:06;;;;;;;8.30;2.33;;;;;;;9.50;100.00;98218.03;4989750;28;20052;-67
2023/10/26 02:52:33;;;;;;;7.65;2.13;;;;;;;9.55;100.00;98215.09;4988911;28;20054;-67
2023/10/26 02:54:59;;;;;;;8.55;1.63;;;;;;;9.57;100.00;98203.56;4991748;28;20055;-67
2023/10/26 02:57:26;;;;;;;4.50;1.35;;;;;;;9.63;100.00;98207.50;4990518;28;20046;-67
2023/10/26 02:59:53;;;;;;;6.53;1.60;;;;;;;9.44;100.00;98179.31;4991417;28;20051;-66
2023/10/26 03:02:20;;;;;;;7.95;1.77;;;;;;;9.47;100.00;98190.38;4988568;28;20130;-67
2023/10/26 03:04:47;;;;;;;8.45;2.10;;;;;;;9.57;100.00;98192.31;4990351;28;20069;-67
2023/10/26 03:07:20;;;;;;;13.00;2.35;;;;;;;9.53;100.00;98186.47;5001899;28;20050;-67
2023/10/26 03:09:47;;;;;;;6.53;1.63;;;;;;;9.59;100.00;98178.16;4994090;28;20050;-67
2023/10/26 03:12:14;;;;;;;6.90;1.70;;;;;;;9.67;100.00;98180.22;5008570;28;20081;-67
2023/10/26 03:14:41;;;;;;;5.80;1.30;;;;;;;9.74;100.00;98175.34;4993192;28;20066;-67
2023/10/26 03:17:09;;;;;;;9.40;1.40;;;;;;;9.74;100.00;98173.59;4999492;28;20484;-67
2023/10/26 03:19:36;;;;;;;5.22;1.20;;;;;;;9.78;100.00;98161.94;5000501;28;20050;-66
2023/10/26 03:22:03;;;;;;;8.75;1.45;;;;;;;9.79;100.00;98155.78;4993844;28;20053;-66
2023/10/26 03:24:29;;;;;;;6.63;1.70;;;;;;;9.78;100.00;98142.84;4993575;28;20053;-66
2023/10/26 03:26:56;;;;;;;3.92;1.30;;;;;;;9.85;100.00;98147.47;4991080;28;20066;-66
2023/10/26 03:29:23;;;;;;;7.32;1.58;;;;;;;9.88;100.00;98142.03;4999337;28;20440;-67
2023/10/26 03:31:51;;;;;;;8.82;2.10;;;;;;;9.71;100.00;98136.41;4981271;28;20059;-68
2023/10/26 03:34:18;;;;;;;11.85;2.42;;;;;;;9.75;100.00;98130.00;4997984;28;20050;-67
2023/10/26 03:36:44;;;;;;;12.02;1.88;;;;;;;9.72;100.00;98122.38;4993482;28;20050;-67
2023/10/26 03:39:11;;;;;;;5.88;1.48;;;;;;;9.79;100.00;98126.19;4994139;28;20088;-67
2023/10/26 03:41:38;;;;;;;9.60;1.98;;;;;;;9.73;100.00;98119.66;4990927;28;20093;-67
2023/10/26 03:44:05;;;;;;;8.45;2.33;;;;;;;9.72;100.00;98125.00;4993119;28;20054;-67
2023/10/26 03:46:31;;;;;;;6.15;1.85;;;;;;;9.75;100.00;98124.78;4992746;28;20085;-68
2023/10/26 03:48:58;;;;;;;8.57;1.92;;;;;;;9.69;100.00;98113.84;4992457;28;20057;-65
2023/10/26 03:51:25;;;;;;;7.43;1.90;;;;;;;9.75;100.00;98116.94;4997111;28;20053;-67
2023/10/26 03:53:51;;;;;;;4.82;1.35;;;;;;;9.81;100.00;98117.31;4992391;28;20141;-67
2023/10/26 03:56:18;;;;;;;7.43;1.85;;;;;;;9.78;100.00;98117.53;4993057;28;20066;-66
2023/10/26 03:58:45;;;;;;;4.95;1.40;;;;;;;9.81;100.00;98117.31;4994775;28;20133;-68
2023/10/26 04:01:11;;;;;;;4.80;1.48;;;;;;;9.75;100.00;98122.97;4998624;28;20050;-67
2023/10/26 04:03:38;;;;;;;3.45;1.42;;;;;;;9.78;100.00;98117.53;4994323;28;20062;-67
2023/10/26 04:06:05;;;;;;;4.85;1.45;;;;;;;9.81;100.00;98124.28;4992633;28;20109;-67
2023/10/26 04:08:32;;;;;;;3.92;1.17;;;;;;;9.89;100.00;98128.00;4992214;28;20050;-67
2023/10/26 04:10:59;;;;;;;3.10;1.23;;;;;;;9.88;100.00;98120.28;4991005;28;20054;-66
2023/10/26 04:13:30;;;;;;;2.22;1.00;;;;;;;9.92;100.00;98115.66;4992299;28;20684;-67
2023/10/26 04:16:01;;;;;;;2.55;1.05;;;;;;;9.92;100.00;98118.28;4992080;28;20047;-67
2023/10/26 04:18:28;;;;;;;2.42;1.00;;;;;;;9.99;100.00;98122.06;4998407;28;20046;-67
2023/10/26 04:20:56;;;;;;;3.20;1.00;;;;;;;9.98;100.00;98125.63;4992211;28;20495;-67
2023/10/26 04:23:22;;;;;;;2.92;1.10;;;;;;;10.03;100.00;98118.25;4988141;28;20676;-67
2023/10/26 04:25:49;;;;;;;3.72;1.45;;;;;;;9.98;100.00;98126.44;4992428;28;20046;-67
2023/10/26 04:28:21;;;;;;;4.65;1.40;;;;;;;9.88;100.00;98105.44;4991699;28;20054;-67
2023/10/26 04:30:48;;;;;;;2.70;1.10;;;;;;;10.01;100.00;98123.59;4992000;28;20050;-67
2023/10/26 04:33:17;;;;;;;3.03;1.20;;;;;;;10.04;100.00;98120.75;4991043;28;20373;-67
2023/10/26 04:35:46;;;;;;;4.65;1.27;;;;;;;10.04;100.00;98114.72;4997075;28;20050;-67
2023/10/26 04:38:13;;;;;;;2.90;1.20;;;;;;;9.92;100.00;98092.13;4996235;28;20073;-67
2023/10/26 04:40:41;;;;;;;3.28;1.05;;;;;;;10.02;100.00;98119.22;4994935;28;20061;-67
2023/10/26 04:43:08;;;;;;;1.73;1.00;;;;;;;9.98;100.00;98117.78;4983589;28;20077;-67
2023/10/26 04:45:35;;;;;;;2.75;0.98;;;;;;;9.94;100.00;98114.56;4991501;28;20093;-67
2023/10/26 04:48:02;;;;;;;1.92;0.93;;;;;;;9.98;100.00;98118.59;4991116;28;20050;-67
2023/10/26 04:50:30;;;;;;;2.53;1.02;;;;;;;9.98;100.00;98112.56;4991635;28;20054;-67
2023/10/26 04:53:02;;;;;;;3.05;1.15;;;;;;;9.92;100.00;98106.03;4988632;28;20046;-67
2023/10/26 04:55:35;;;;;;;2.28;1.10;;;;;;;9.97;100.00;98106.50;4993955;28;20051;-67
2023/10/26 04:58:03;;;;;;;4.53;1.00;;;;;;;9.94;100.00;98109.34;4997586;28;20045;-67
2023/10/26 05:00:30;;;;;;;1.95;0.82;;;;;;;9.96;100.00;98106.63;4991325;28;20054;-67
2023/10/26 05:02:57;;;;;;;1.20;0.90;;;;;;;9.93;100.00;98101.63;4989288;28;20444;-67
2023/10/26 05:05:24;;;;;;;6.03;1.13;;;;;;;9.87;100.00;98100.31;4991276;28;20050;-67
2023/10/26 05:07:51;;;;;;;2.35;0.82;;;;;;;9.92;100.00;98097.38;4991068;28;20054;-67
2023/10/26 05:10:18;;;;;;;4.07;1.10;;;;;;;9.92;100.00;98099.97;4997313;28;20065;-67
2023/10/26 05:12:45;;;;;;;2.40;0.80;;;;;;;9.86;100.00;98091.66;4988022;28;20077;-67
2023/10/26 05:15:12;;;;;;;2.08;0.90;;;;;;;9.89;100.00;98091.41;4996261;28;20065;-67
2023/10/26 05:17:38;;;;;;;2.88;1.00;;;;;;;9.81;100.00;98093.78;4990126;28;20049;-67
2023/10/26 05:20:09;;;;;;;3.50;1.10;;;;;;;9.73;100.00;98095.31;4993333;28;20046;-68
2023/10/26 05:22:35;;;;;;;5.45;1.33;;;;;;;9.75;100.00;98103.88;4994268;28;20080;-67
2023/10/26 05:25:04;;;;;;;2.22;1.00;;;;;;;9.70;100.00;98093.75;4989829;28;20053;-67
2023/10/26 05:27:32;;;;;;;2.95;1.02;;;;;;;9.65;100.00;98086.28;4995308;28;20462;-67
2023/10/26 05:30:02;;;;;;;3.78;1.10;;;;;;;9.61;100.00;98084.00;4993547;28;20056;-67
2023/10/26 05:32:29;;;;;;;3.90;1.02;;;;;;;9.54;100.00;98082.81;4985842;28;20141;-67
2023/10/26 05:34:56;;;;;;;2.70;1.00;;;;;;;9.61;100.00;98091.84;4989772;28;20050;-67
2023/10/26 05:37:22;;;;;;;4.30;1.20;;;;;;;9.62;100.00;98094.34;4990256;28;20046;-67
2023/10/26 05:39:49;;;;;;;2.40;0.90;;;;;;;9.61;100.00;98100.50;4990492;28;20455;-67
2023/10/26 05:42:15;;;;;;;7.45;1.33;;;;;;;9.46;100.00;98114.75;4985893;28;20043;-66
2023/10/26 05:44:42;;;;;;;2.40;0.90;;;;;;;9.43;100.00;98121.00;4989992;28;20101;-66
2023/10/26 05:47:09;;;;;;;3.38;1.15;;;;;;;9.35;100.00;98122.53;4990135;28;20088;-67
2023/10/26 05:49:37;;;;;;;3.35;1.02;;;;;;;9.45;100.00;98123.50;4989536;28;20400;-67
2023/10/26 05:52:04;;;;;;;2.63;0.95;;;;;;;9.51;100.00;98130.91;4989312;28;20378;-67
2023/10/26 05:54:31;;;;;;;2.08;1.10;;;;;;;9.43;100.00;98135.84;4989079;28;20073;-66
2023/10/26 05:56:58;;;;;;;1.50;0.90;;;;;;;9.48;100.00;98139.78;4990009;28;20061;-66
2023/10/26 05:59:25;;;;;;;2.42;1.10;;;;;;;9.47;100.00;98127.69;4989488;28;20054;-67
2023/10/26 06:01:51;;;;;;;2.15;1.00;;;;;;;9.50;100.00;98131.84;4989148;28;20046;-67
2023/10/26 06:04:18;;;;;;;4.05;1.13;;;;;;;9.43;100.00;98130.63;5004910;28;20108;-67
2023/10/26 06:06:45;;;;;;;2.30;1.30;;;;;;;9.40;100.00;98141.28;4989656;28;20053;-67
2023/10/26 06:09:12;;;;;;;2.67;0.90;;;;;;;9.46;100.00;98146.09;4990052;28;20050;-67
2023/10/26 06:11:39;;;;;;;2.45;1.00;;;;;;;9.34;100.00;98110.44;4987979;28;20054;-67
2023/10/26 06:14:06;;;;;;;2.63;1.05;;;;;;;9.58;100.00;98134.72;4987936;28;20054;-67
2023/10/26 06:16:33;;;;;;;4.03;1.10;;;;;;;9.57;100.00;98130.44;4987672;28;20046;-67
2023/10/26 06:19:00;;;;;;;4.20;1.20;;;;;;;9.50;100.00;98119.59;4988608;28;20357;-67
2023/10/26 06:21:27;;;;;;;4.68;1.23;;;;;;;9.66;100.00;98128.91;4985919;28;20082;-67
2023/10/26 06:23:54;;;;;;;4.72;1.45;;;;;;;9.65;100.00;98122.88;4985740;28;20050;-67
2023/10/26 06:26:20;;;;;;;2.13;1.08;;;;;;;9.68;100.00;98119.16;4987018;28;20050;-67
2023/10/26 06:28:47;;;;;;;4.53;1.70;;;;;;;9.67;100.00;98118.34;4983621;28;20469;-67
2023/10/26 06:31:14;;;;;;;2.95;1.13;;;;;;;9.67;100.00;98117.53;4988769;28;20057;-67
2023/10/26 06:33:42;;;;;;;3.63;1.00;;;;;;;9.75;100.00;98117.75;4980410;28;20125;-67
2023/10/26 06:36:10;;;;;;;3.85;0.93;;;;;;;9.67;100.00;98120.97;4978892;28;20408;-67
2023/10/26 06:38:38;;;;;;;2.05;1.02;;;;;;;9.64;100.00;98125.59;4989502;28;20495;-66
2023/10/26 06:41:06;;;;;;;3.53;1.10;;;;;;;9.66;100.00;98127.13;4989853;28;20050;-67
2023/10/26 06:43:33;;;;;;;2.17;1.20;;;;;;;9.64;100.00;98120.34;4986913;28;20046;-67
2023/10/26 06:46:02;;;;;;;2.58;1.10;;;;;;;9.60;100.00;98119.75;4986591;28;20043;-67
2023/10/26 06:48:30;;;;;;;3.20;1.00;;;;;;;9.55;100.00;98128.91;4991782;28;20043;-67
2023/10/26 06:51:01;;;;;;;5.07;1.10;;;;;;;9.54;100.00;98141.09;4989470;28;20046;-67
2023/10/26 06:53:29;;;;;;;1.92;0.90;;;;;;;9.62;100.00;98140.56;4984618;28;20544;-67
2023/10/26 06:55:57;;;;;;;3.38;1.30;;;;;;;9.67;100.00;98126.19;4986690;28;20057;-66
2023/10/26 06:58:24;;;;;;;2.78;1.42;;;;;;;9.60;100.00;98147.66;4993799;28;20086;-67
2023/10/26 07:00:52;;;;;;;4.25;1.38;;;;;;;9.67;100.00;98144.47;4989376;28;20049;-67
2023/10/26 07:03:20;;;;;;;1.90;0.90;;;;;;;9.71;100.00;98141.63;4989425;28;20432;-67
2023/10/26 07:05:47;;;;;;;4.20;1.10;;;;;;;9.76;100.00;98144.75;4988095;28;20460;-67
2023/10/26 07:08:15;;;;;;;2.83;1.20;;;;;;;9.79;100.00;98144.47;4990997;28;20485;-67
2023/10/26 07:10:42;;;;;;;1.92;1.08;;;;;;;9.80;100.00;98146.16;4992072;28;20055;-67
2023/10/26 07:13:09;;;;;;;2.47;1.00;;;;;;;9.84;100.00;98145.81;4980991;28;20058;-67
2023/10/26 07:15:36;;;;;;;4.18;1.00;;;;;;;9.82;100.00;98144.25;4992485;28;20046;-67
2023/10/26 07:18:04;;;;;;;2.00;0.90;;;;;;;9.88;100.00;98154.25;4991074;28;20101;-67
2023/10/26 07:20:32;;;;;;;1.88;1.00;;;;;;;9.88;100.00;98157.69;4995969;28;20046;-67
2023/10/26 07:22:58;;;;;;;5.20;1.42;;;;;;;9.77;100.00;98159.44;4990124;28;20054;-67
2023/10/26 07:25:25;;;;;;;3.13;1.38;;;;;;;9.77;100.00;98181.19;4992410;28;20145;-67
2023/10/26 07:27:52;;;;;;;2.78;1.10;;;;;;;9.79;100.00;98166.25;4989860;28;20065;-67
2023/10/26 07:30:19;;;;;;;4.22;1.27;;;;;;;9.74;100.00;98164.91;4991151;28;20087;-67
2023/10/26 07:32:45;;;;;;;2.17;1.00;;;;;;;9.81;100.00;98159.13;4991248;28;20408;-67
2023/10/26 07:35:14;;;;;;;4.78;1.33;;;;;;;9.79;100.00;98174.09;4990165;28;20050;-67
2023/10/26 07:37:41;;;;;;;1.45;0.93;;;;;;;9.82;100.00;98176.44;4989348;28;20046;-67
2023/10/26 07:40:10;;;;;;;2.45;0.90;;;;;;;9.89;100.00;98171.59;4987738;28;20130;-67
2023/10/26 07:42:55;;;;;;;2.30;1.20;;;;;;;9.92;100.00;98171.38;4978504;28;20509;-67
2023/10/26 07:45:22;;;;;;;1.38;0.90;;;;;;;9.98;100.00;98177.91;4987244;28;20125;-67
2023/10/26 07:47:48;;;;;;;1.33;0.90;;;;;;;9.98;100.00;98173.50;4985946;28;20377;-67
2023/10/26 07:50:19;;;;;;;1.73;1.00;;;;;;;9.95;100.00;98172.91;4988137;28;20042;-67
2023/10/26 07:52:47;;;;;;;2.38;0.93;;;;;;;9.97;100.00;98182.31;4989481;28;20427;-67
2023/10/26 07:55:14;;;;;;;2.58;0.80;;;;;;;9.97;100.00;98182.31;4987135;28;20495;-67
2023/10/26 07:57:41;;;;;;;5.88;1.00;;;;;;;9.89;100.00;98185.47;4988435;28;20078;-67
2023/10/26 08:00:11;;;;;;;1.70;1.00;;;;;;;9.94;100.00;98187.75;4990885;28;20077;-67
2023/10/26 08:02:38;;;;;;;2.95;0.85;;;;;;;9.81;100.00;98166.97;4976239;28;20050;-67
2023/10/26 08:05:07;;;;;;;1.95;0.90;;;;;;;9.97;100.00;98192.78;4982671;28;20050;-67
2023/10/26 08:07:36;;;;;;;2.67;1.00;;;;;;;9.99;100.00;98190.88;4991492;28;20087;-67
2023/10/26 08:10:04;;;;;;;2.58;0.90;;;;;;;9.96;100.00;98190.25;4990997;28;20460;-67
2023/10/26 08:12:30;;;;;;;2.28;0.90;;;;;;;9.91;100.00;98192.38;4990933;28;20046;-67
2023/10/26 08:14:57;;;;;;;2.10;0.85;;;;;;;9.98;100.00;98196.22;4984708;28;20424;-67
2023/10/26 08:17:44;;;;;;;1.85;0.90;;;;;;;10.02;100.00;98201.09;4999065;28;20156;-67
2023/10/26 08:20:12;;;;;;;2.30;1.00;;;;;;;10.10;100.00;98202.28;4989511;28;20046;-67
2023/10/26 08:22:38;;;;;;;3.33;1.02;;;;;;;10.17;100.00;98204.31;4987557;28;20060;-67
2023/10/26 08:25:06;;;;;;;3.72;1.08;;;;;;;10.12;100.00;98196.00;4990955;28;20496;-67
2023/10/26 08:27:35;;;;;;;3.10;1.05;;;;;;;10.14;100.00;98204.53;4983488;28;20057;-67
2023/10/26 08:30:06;;;;;;;3.10;1.20;;;;;;;10.12;100.00;98200.41;4990683;28;20469;-67
2023/10/26 08:32:32;;;;;;;5.78;1.30;;;;;;;10.23;100.00;98203.00;4990461;28;20046;-66
2023/10/26 08:34:59;;;;;;;3.80;2.08;;;;;;;10.22;100.00;98202.19;4983615;28;20161;-67
2023/10/26 08:37:27;;;;;;;3.47;1.00;;;;;;;10.31;100.00;98205.06;4990176;28;20515;-67
2023/10/26 08:39:55;;;;;;;3.90;1.10;;;;;;;10.36;100.00;98201.16;4983012;28;20051;-67
2023/10/26 08:42:22;;;;;;;4.05;1.20;;;;;;;10.45;100.00;98212.69;4989664;28;20142;-67
2023/10/26 08:44:49;;;;;;;5.18;1.30;;;;;;;10.40;100.00;98199.97;4980414;28;20046;-67
2023/10/26 08:47:17;;;;;;;2.78;0.95;;;;;;;10.39;100.00;98208.78;4998236;28;20050;-67
2023/10/26 08:49:52;;;;;;;2.67;1.37;;;;;;;10.36;100.00;98221.25;4994286;28;20050;-67
2023/10/26 08:52:39;;;;;;;4.13;1.20;;;;;;;10.32;100.00;98210.19;4988894;28;20062;-67
2023/10/26 08:55:07;;;;;;;8.48;2.10;;;;;;;10.37;100.00;98220.28;4991871;28;20054;-67
2023/10/26 08:57:48;;;;;;;4.78;1.55;;;;;;;10.45;100.00;98217.94;4989949;28;20054;-67
2023/10/26 09:00:16;;;;;;;8.88;1.98;;;;;;;10.36;100.00;98193.31;4989711;28;20047;-67
2023/10/26 09:02:43;;;;;;;5.00;1.50;;;;;;;10.48;100.00;98209.81;4991645;28;20049;-67
2023/10/26 09:05:11;;;;;;;7.15;1.75;;;;;;;10.51;100.00;98206.97;4984510;28;20457;-67
2023/10/26 09:07:38;;;;;;;7.60;1.77;;;;;;;10.65;100.00;98211.13;4986469;28;20476;-67
2023/10/26 09:10:05;;;;;;;5.97;1.50;;;;;;;10.77;100.00;98211.97;4978116;28;20038;-67
2023/10/26 09:12:32;;;;;;;5.95;1.45;;;;;;;10.81;100.00;98206.34;4980869;28;20061;-67
2023/10/26 09:15:01;;;;;;;7.90;1.98;;;;;;;10.78;100.00;98204.00;4984454;28;20053;-67
2023/10/26 09:17:29;;;;;;;7.78;1.70;;;;;;;10.89;100.00;98213.63;4984760;28;20061;-67
2023/10/26 09:19:57;;;;;;;7.10;1.77;;;;;;;10.95;100.00;98214.91;4987940;28;20053;-67
2023/10/26 09:22:37;;;;;;;5.88;1.88;;;;;;;11.00;100.00;98218.84;4986777;28;20058;-67
2023/10/26 09:25:08;;;;;;;6.43;1.67;;;;;;;11.02;100.00;98216.91;4988761;28;20050;-67
2023/10/26 09:27:35;;;;;;;8.13;2.08;;;;;;;11.12;100.00;98209.19;4984975;28;20046;-67
2023/10/26 09:30:03;;;;;;;10.27;2.10;;;;;;;11.19;100.00;98202.50;4985471;28;20046;-67
2023/10/26 09:32:34;;;;;;;6.97;1.95;;;;;;;11.33;100.00;98224.09;4987480;28;20053;-67
2023/10/26 09:35:03;;;;;;;7.75;2.00;;;;;;;11.26;100.00;98225.56;4989847;28;20400;-67
2023/10/26 09:37:30;;;;;;;10.65;2.78;;;;;;;11.49;100.00;98227.16;4988067;28;20054;-67
2023/10/26 09:39:57;;;;;;;6.70;1.75;;;;;;;11.41;100.00;98224.31;4978901;28;20382;-65
2023/10/26 09:42:42;;;;;;;7.90;1.70;;;;;;;11.66;100.00;98240.69;4986639;28;20058;-66
2023/10/26 09:45:09;;;;;;;5.32;1.45;;;;;;;11.78;100.00;98235.25;4989140;28;20043;-67
2023/10/26 09:47:36;;;;;;;5.07;1.40;;;;;;;11.77;100.00;98233.59;4989138;28;20050;-66
2023/10/26 09:50:04;;;;;;;8.90;1.55;;;;;;;11.74;100.00;98230.41;4988944;28;20093;-67
2023/10/26 09:52:32;;;;;;;9.70;1.40;;;;;;;11.69;100.00;98236.00;4986994;28;20469;-65
2023/10/26 09:54:59;;;;;;;8.75;2.28;;;;;;;11.40;100.00;98233.13;4989095;28;20051;-65
2023/10/26 09:57:34;;;;;;;10.88;1.77;;;;;;;11.27;100.00;98233.28;4987923;28;20062;-65
2023/10/26 10:00:07;;;;;;;6.70;1.60;;;;;;;11.32;100.00;98239.00;4987821;28;20034;-65
2023/10/26 10:02:34;;;;;;;;;;;;;;;11.47;100.00;98230.84;4988251;28;20053;-65
2023/10/26 10:05:00;;;;;;;6.95;1.40;;;;;;;11.49;100.00;98221.94;4988452;28;20004;-67
2023/10/26 10:07:44;;;;;;;5.45;1.48;;;;;;;11.46;100.00;98224.78;4989083;28;20054;-65
2023/10/26 10:10:13;;;;;;;5.50;1.20;;;;;;;11.48;100.00;98222.03;4988396;28;20050;-65
2023/10/26 10:12:42;;;;;;;7.35;1.30;;;;;;;11.59;100.00;98219.38;4987049;28;20056;-65
2023/10/26 10:15:11;;;;;;;8.27;1.85;;;;;;;11.45;100.00;98212.63;4987292;28;20129;-67
2023/10/26 10:17:46;;;;;;;4.20;1.30;;;;;;;11.50;100.00;98218.34;4988226;28;20061;-66
2023/10/26 10:20:19;;;;;;;3.15;1.30;;;;;;;11.79;100.00;98204.59;4983966;28;20109;-68
2023/10/26 10:22:50;;;;;;;4.75;1.10;;;;;;;11.93;100.00;98203.50;4987655;28;20052;-66
2023/10/26 10:25:18;;;;;;;6.03;1.50;;;;;;;11.77;100.00;98199.53;4991799;28;20058;-65
2023/10/26 10:27:48;;;;;;;7.22;2.15;;;;;;;11.57;100.00;98205.56;4987986;28;20054;-66
2023/10/26 10:30:19;;;;;;;7.78;1.98;;;;;;;11.55;100.00;98202.25;4988449;28;20654;-69
2023/10/26 10:32:48;;;;;;;4.70;1.42;;;;;;;11.49;100.00;98221.94;4987966;28;20050;-68
2023/10/26 10:35:21;;;;;;;5.47;1.40;;;;;;;11.61;100.00;98209.59;4989135;28;20058;-67
2023/10/26 10:38:17;;;;;;;7.15;1.75;;;;;;;11.44;100.00;98212.75;4990249;28;20141;-66
2023/10/26 10:40:59;;;;;;;10.55;2.38;;;;;;;11.53;100.00;98209.41;4991565;28;20061;-68
2023/10/26 10:43:32;;;;;;;5.47;1.77;;;;;;;11.55;100.00;98213.56;4988578;28;20081;-66
2023/10/26 10:46:25;;;;;;;5.72;1.55;;;;;;;11.76;100.00;98212.75;4990923;28;20053;-68
2023/10/26 10:49:03;;;;;;;9.35;2.15;;;;;;;11.53;100.00;98212.84;4986700;28;20431;-68
2023/10/26 10:51:50;;;;;;;6.78;1.50;;;;;;;11.60;100.00;98210.56;4989235;28;20057;-69
2023/10/26 10:54:22;;;;;;;5.93;1.40;;;;;;;11.60;100.00;98210.56;4990509;28;20544;-65
2023/10/26 10:57:09;;;;;;;8.10;1.40;;;;;;;11.53;100.00;98199.75;4987831;28;20100;-65
2023/10/26 10:59:35;;;;;;;6.15;1.75;;;;;;;11.42;100.00;98193.72;4990169;28;20126;-65
2023/10/26 11:02:07;;;;;;;7.15;1.48;;;;;;;11.46;100.00;98206.44;4989874;28;20046;-68
2023/10/26 11:04:34;;;;;;;6.63;1.20;;;;;;;11.55;100.00;98192.59;4990433;28;20042;-66
2023/10/26 11:07:16;;;;;;;4.70;1.40;;;;;;;11.65;100.00;98200.53;4990556;28;20050;-67
2023/10/26 11:09:46;;;;;;;5.30;1.38;;;;;;;11.62;100.00;98190.28;4990507;28;20400;-68
2023/10/26 11:12:13;;;;;;;7.13;1.40;;;;;;;11.67;100.00;98196.00;4986099;28;20054;-65
2023/10/26 11:14:50;;;;;;;8.05;2.25;;;;;;;11.58;100.00;98188.91;4990421;28;20054;-65
2023/10/26 11:17:21;;;;;;;12.15;2.00;;;;;;;11.53;100.00;98188.44;4989841;28;20054;-65
2023/10/26 11:19:49;;;;;;;8.52;2.13;;;;;;;11.34;100.00;98205.66;4989194;28;20049;-66
2023/10/26 11:22:17;;;;;;;8.88;2.47;;;;;;;11.42;100.00;98204.19;4989287;28;20046;-65
2023/10/26 11:24:45;;;;;;;7.80;2.10;;;;;;;11.58;100.00;98207.25;4990389;28;20404;-66
2023/10/26 11:27:15;;;;;;;10.88;3.25;;;;;;;11.58;100.00;98202.00;4990996;28;20061;-67
2023/10/26 11:29:44;;;;;;;10.20;2.70;;;;;;;11.45;100.00;98211.81;4993005;28;20050;-66
2023/10/26 11:32:18;;;;;;;17.77;4.80;;;;;;;11.31;100.00;98205.06;4992919;28;20046;-66
2023/10/26 11:35:05;;;;;;;11.93;3.28;;;;;;;11.53;100.00;98214.66;4993489;28;20043;-65
2023/10/26 11:37:37;;;;;;;11.55;3.97;;;;;;;11.52;100.00;98216.41;4991795;28;20121;-66